默认 日期 大小 文件数 浏览量 最新下载 xml
24 48磁力链接相关资源由用户搜索指令自动获取,结果来源于网络,本站不存储任何资料,亦不承担任何责任,请于24小时内删除,搜索到14546个磁力,显示前4000条数据,用时17ms。
    {"no-shit": {"1.jpg": 467807, "2.jpg": 431850, "1-f.jpg": 139169, "1-l.jpg": 329285, "2-f.jpg": 135758, "2-l.jpg": 303599, "aucdtect.log": 1971}, "cover.jpeg": 25589, "credits.txt": 3652, "Alice Coltrane - Transcendence - 04 - Sivaya.flac": 60493885, " ...
创建时间: 2020-04-18 20:14:40 大小:433.41 MB 文件数量:16 热度:3 最近下载:2025-04-09 20:41:03
    {"cover.jpg": 359563, "foo_dr.txt": 1479, "12 Warhead.flac": 42001049, "02 Awakened.flac": 33901589, "05 Fight Back.flac": 39127099, "11 Total Wrath.flac": 42752487, "04 Bone Crusher.flac": 38741997, "09 Rise for Glory.flac": 41137431, "01 All out Carnage. ...
创建时间: 2020-04-18 20:58:06 大小:418.14 MB 文件数量:14 热度:4 最近下载:2023-12-31 09:02:04
    {"cover.jpg": 253336, "foo_dr.txt": 1513, "04 Stormfront.flac": 31569814, "06 Metal Forge.flac": 33251657, "07 Primal Urge.flac": 35927742, "08 One Bad Day.flac": 37927090, "11 Fallen Angel.flac": 39297877, "01 Spiral Vortex.flac": 32109363, "05 Envy the ...
创建时间: 2020-04-18 21:14:49 大小:395.54 MB 文件数量:14 热度:4 最近下载:2025-03-23 03:23:01
    {"cover.jpg": 512244, "foo_dr.txt": 1479, "10 Power Up.flac": 39095949, "04 Rocket Fuel.flac": 43022705, "01 Brain Freeze.flac": 32638046, "09 Home Wrecker.flac": 39082360, "11 Hell on Fire.flac": 31117991, "06 Scrape It Off.flac": 41762850, "02 Pick Your ...
创建时间: 2020-04-19 00:40:51 大小:424.08 MB 文件数量:14 热度:6 最近下载:2024-07-29 22:06:02
    {"cover.jpg": 346252, "foo_dr.txt": 1478, "02 Amped Up.flac": 45740357, "06 Ramp It Up.flac": 33523775, "04 Keep It Lit.flac": 42342147, "07 Hammer Claw.flac": 34245111, "01 Show of Force.flac": 38048857, "03 Save the World.flac": 40379505, "08 Last One ...
创建时间: 2020-04-19 01:37:34 大小:427.07 MB 文件数量:14 热度:5 最近下载:2024-09-29 17:33:02
    {"cover.jpg": 250851, "foo_dr.txt": 1482, "08 Sweet Spot.flac": 37505472, "01 Going Viral.flac": 33336885, "12 Deadly Sting.flac": 33876424, "05 Problem Child.flac": 27481818, "09 Live out Loud.flac": 35796785, "04 Fueled by Fire.flac": 34694046, "07 Young ...
创建时间: 2020-04-19 02:13:18 大小:411.82 MB 文件数量:14 热度:3 最近下载:2023-12-31 09:40:03
    {"artist.jpg": 209043, "folder.jpg": 2031735, "foo_dr.txt": 1924, "11 - Fin.flac": 11816177, "07 - Alex.flac": 20291116, "13 - Clara.flac": 36529444, "08 - Claire.flac": 10830539, "17 - Apnée.flac": 10988741, "18 - Vertige.flac": 22429026, "05 - Rendez- ...
创建时间: 2020-04-19 02:14:49 大小:359.48 MB 文件数量:22 热度:5 最近下载:2024-12-17 09:34:02
    {"Suppe.jpg": 295174, "foo_dr.txt": 1405, "booklet.pdf": 2362769, "Suppe 500.jpg": 140134, "Boccaccio Spectral.jpg": 825939, "3. Boccaccio - Overture.flac": 78191179, "6. Pique Dame - Overture.flac": 77309097, "5. Banditenstreiche - Overture.flac": ...
创建时间: 2020-04-19 03:52:26 大小:606.26 MB 文件数量:13 热度:6 最近下载:2024-12-06 01:52:04
    {"Cover.jpg": 452680, "foo_dr.txt": 1805, "Booklet.pdf": 1957416, "08. Quatuor à cordes Harmonieuses dissonances.flac": 258189873, "06. Trio pour violon, violoncelle & piano II. Formes circulaires.flac": 53369362, "05. Trio pour violon, violoncelle & piano ...
创建时间: 2020-04-19 05:08:03 大小:690.49 MB 文件数量:11 热度:6 最近下载:2023-12-31 09:59:04
    {"cover.jpg": 432158, "foo_dr.txt": 1431, "06 Rocket Arm.flac": 31620580, "07 Head Count.flac": 29515313, "04 Pound It In.flac": 30430158, "02 Grave Robber.flac": 28970507, "01 Cracked Ribbs.flac": 30968654, "05 Off the Glass.flac": 29805731, "11 Called by ...
创建时间: 2020-04-19 05:11:45 大小:316.12 MB 文件数量:13 热度:8 最近下载:2025-09-20 14:04:03
    {"folder.jpg": 1235204, "02 - Leapling.flac": 51559836, "03 - Helio Ramp.flac": 65086865, "08 - Halo Jones.flac": 23535289, "01 - Boneless One.flac": 47669005, "04 - Burn Bridged.flac": 39432067, "09 - Angel Lights.flac": 60388006, "07 - Winged Cadence. ...
创建时间: 2020-04-19 08:26:35 大小:367.29 MB 文件数量:10 热度:6 最近下载:2024-10-09 10:34:01
    {"cover.jpg": 225818, "foo_dr.txt": 1454, "09 Gone.flac": 43250274, "02 Hatred.flac": 49429422, "08 Forget.flac": 46734838, "03 How Long.flac": 43604945, "12 Fighting.flac": 63108936, "06 Struggling.flac": 50302085, "10 Can't Go On.flac": 42687553, "04 ...
创建时间: 2020-04-19 21:46:14 大小:541.97 MB 文件数量:14 热度:4 最近下载:2023-12-31 11:29:05
    {"cover.jpg": 290743, "foo_dr.txt": 1646, "03 Red Smoke.flac": 34596976, "04 Rock Easy.flac": 35130519, "14 Rider Joe.flac": 27255125, "15 Rider Joe.flac": 27402983, "10 Rock It Off.flac": 37619570, "12 Ella's Rock.flac": 33604191, "06 Tough Sports.flac": ...
创建时间: 2020-04-20 13:32:03 大小:452.74 MB 文件数量:17 热度:4 最近下载:2023-12-31 13:05:04
    {"folder.jpg": 513048, "foo_dr.txt": 1481, "02 - II. Andante.flac": 41263969, "05 - II. Andante.flac": 54187809, "06 - III. Menuetto.flac": 21958662, "01 - I. Allegro molto.flac": 40280636, "04 - I. Allegro giusto.flac": 46383387, "03 - III. Allegro vivace ...
创建时间: 2020-04-21 01:13:57 大小:552.49 MB 文件数量:12 热度:15 最近下载:2024-12-22 16:32:02
    {"cover.jpg": 217970, "foo_dr.txt": 1337, "02 Fear Me.flac": 40228261, "08 Jawlock.flac": 42292832, "10 Shutout.flac": 35672982, "03 Heathens.flac": 42556950, "01 Cut the Cord.flac": 41775013, "06 Dragon Force.flac": 36899927, "05 Active War Zone.flac": ...
创建时间: 2020-04-21 10:46:12 大小:366.32 MB 文件数量:12 热度:5 最近下载:2025-02-01 02:57:01
    ... - III. Scherzo. Allegro.flac": 52825298, "24 - III. Tempo di menuetto.flac ...
创建时间: 2020-04-21 14:40:55 大小:3.34 GB 文件数量:40 热度:8 最近下载:2025-02-14 06:45:03
    ... .txt": 8312, "booklet.pdf": 1444290, "24. Die Frau ohne Schatten, Op ... du's (Live).flac": 38845210, "48. Die Frau ohne Schatten, Op ...
创建时间: 2020-04-21 15:33:34 大小:2.02 GB 文件数量:53 热度:15 最近下载:2025-10-16 22:29:02
    {"cover.jpg": 347220, "foo_dr.txt": 1334, "08 Bridges.flac": 40968946, "10 Bridges.flac": 41633630, "01 Hot Babe.flac": 26970557, "07 Pig Mask.flac": 28070561, "02 Fire Power.flac": 27426637, "04 Quarterback.flac": 28337184, "05 Lower Than Low.flac": ...
创建时间: 2020-04-21 21:16:30 大小:293.9 MB 文件数量:12 热度:3 最近下载:2023-12-31 17:47:05
    {"foo_dr.txt": 2642, "LP label 1.jpeg": 594220, "LP label 2.jpeg": 602288, "М20-39173-4.cue": 2399, "М20-39173-сторона-1.flac": 141845888, "М20-39174-сторона-2.flac": 129946317}
创建时间: 2020-04-21 22:36:42 大小:260.35 MB 文件数量:6 热度:3 最近下载:2023-12-31 17:58:04
    {"2012 - Les Friction": {"Cover.jpg": 521746, "07. Sunday.flac": 48984954, "02. Torture.flac": 64629464, "03. What You Need.flac": 47559920, "05. World On Fire.flac": 49921054, "08. String Theory.flac": 49045894, "06. Save Your Life.flac": 43260690, "09. ...
创建时间: 2020-04-22 02:14:07 大小:1022.37 MB 文件数量:24 热度:4 最近下载:2023-12-31 18:40:06